Terminal Aerodrome Forecast
Issued by NWS

Home | Current Version | Previous Version | Text Only | Print | Product List | Glossary On
Versions: 1 2 3 4 5 6 7 8 9 10 11 12 13 14 15 16 17 18 19 20 21 22
000
FTUS45 KREV 270500
TAFTRK
TAF
KTRK 270527Z 2706/2806 VRB03KT P6SM BKN100 OVC160
     FM271700 VRB04KT 5SM -RASN BKN030 OVC040
     FM272100 25005KT P6SM VCSH BKN040 OVC070
     FM280100 VRB03KT P6SM OVC040
      AMD NOT SKED 2706/2712=

USA.gov is the U.S. government's official web portal to all federal, state and local government web resources and services.